sensor_id;sensor_type;location;lat;lon;timestamp;P1;durP1;ratioP1;P2;durP2;ratioP2
4309;SDS011;2168;53.576;9.980;2023-02-15T00:01:08;88.17;;;33.70;;
4309;SDS011;2168;53.576;9.980;2023-02-15T00:03:34;89.03;;;30.50;;
4309;SDS011;2168;53.576;9.980;2023-02-15T00:05:59;98.80;;;31.50;;
4309;SDS011;2168;53.576;9.980;2023-02-15T00:08:24;76.43;;;32.23;;
4309;SDS011;2168;53.576;9.980;2023-02-15T00:10:49;81.33;;;29.93;;
4309;SDS011;2168;53.576;9.980;2023-02-15T00:13:14;73.37;;;28.60;;
4309;SDS011;2168;53.576;9.980;2023-02-15T00:15:40;78.03;;;29.70;;
4309;SDS011;2168;53.576;9.980;2023-02-15T00:18:05;69.40;;;31.33;;
4309;SDS011;2168;53.576;9.980;2023-02-15T00:20:30;68.43;;;30.57;;
4309;SDS011;2168;53.576;9.980;2023-02-15T00:22:55;74.80;;;29.73;;
4309;SDS011;2168;53.576;9.980;2023-02-15T00:25:20;64.20;;;28.53;;
4309;SDS011;2168;53.576;9.980;2023-02-15T00:27:46;67.50;;;32.33;;
4309;SDS011;2168;53.576;9.980;2023-02-15T00:30:11;67.17;;;30.80;;
4309;SDS011;2168;53.576;9.980;2023-02-15T00:32:36;64.70;;;29.10;;
4309;SDS011;2168;53.576;9.980;2023-02-15T00:35:01;69.30;;;30.50;;
4309;SDS011;2168;53.576;9.980;2023-02-15T00:37:27;87.50;;;31.20;;
4309;SDS011;2168;53.576;9.980;2023-02-15T00:39:52;72.00;;;30.83;;
4309;SDS011;2168;53.576;9.980;2023-02-15T00:42:17;90.00;;;33.80;;
4309;SDS011;2168;53.576;9.980;2023-02-15T00:44:42;73.83;;;32.20;;
4309;SDS011;2168;53.576;9.980;2023-02-15T00:47:07;74.53;;;30.50;;
4309;SDS011;2168;53.576;9.980;2023-02-15T00:49:33;94.88;;;31.25;;
4309;SDS011;2168;53.576;9.980;2023-02-15T00:51:58;69.57;;;29.53;;
4309;SDS011;2168;53.576;9.980;2023-02-15T00:54:23;85.23;;;29.90;;
4309;SDS011;2168;53.576;9.980;2023-02-15T00:56:48;74.77;;;31.20;;
4309;SDS011;2168;53.576;9.980;2023-02-15T00:59:13;66.93;;;30.20;;
4309;SDS011;2168;53.576;9.980;2023-02-15T01:01:38;74.20;;;31.63;;
4309;SDS011;2168;53.576;9.980;2023-02-15T01:04:04;72.43;;;30.63;;
4309;SDS011;2168;53.576;9.980;2023-02-15T01:06:29;70.00;;;30.90;;
4309;SDS011;2168;53.576;9.980;2023-02-15T01:08:54;81.70;;;32.80;;
4309;SDS011;2168;53.576;9.980;2023-02-15T01:11:21;61.20;;;29.40;;
4309;SDS011;2168;53.576;9.980;2023-02-15T01:13:50;81.00;;;31.20;;
4309;SDS011;2168;53.576;9.980;2023-02-15T01:16:15;67.53;;;29.40;;
4309;SDS011;2168;53.576;9.980;2023-02-15T01:18:41;74.40;;;31.70;;
4309;SDS011;2168;53.576;9.980;2023-02-15T01:21:16;74.80;;;32.50;;
4309;SDS011;2168;53.576;9.980;2023-02-15T01:23:41;81.87;;;34.50;;
4309;SDS011;2168;53.576;9.980;2023-02-15T01:26:07;67.87;;;32.13;;
4309;SDS011;2168;53.576;9.980;2023-02-15T01:28:33;75.23;;;32.30;;
4309;SDS011;2168;53.576;9.980;2023-02-15T01:30:58;76.83;;;30.70;;
4309;SDS011;2168;53.576;9.980;2023-02-15T01:33:24;70.77;;;32.13;;
4309;SDS011;2168;53.576;9.980;2023-02-15T01:35:55;80.60;;;32.57;;
4309;SDS011;2168;53.576;9.980;2023-02-15T01:38:20;77.73;;;32.53;;
4309;SDS011;2168;53.576;9.980;2023-02-15T01:40:45;65.90;;;29.20;;
4309;SDS011;2168;53.576;9.980;2023-02-15T01:43:11;62.87;;;29.67;;
4309;SDS011;2168;53.576;9.980;2023-02-15T01:45:37;71.00;;;28.97;;
4309;SDS011;2168;53.576;9.980;2023-02-15T01:50:28;62.50;;;29.90;;
4309;SDS011;2168;53.576;9.980;2023-02-15T01:52:58;73.83;;;30.63;;
4309;SDS011;2168;53.576;9.980;2023-02-15T01:55:26;58.77;;;29.07;;
4309;SDS011;2168;53.576;9.980;2023-02-15T01:57:53;66.13;;;29.00;;
4309;SDS011;2168;53.576;9.980;2023-02-15T02:00:18;66.37;;;28.37;;
4309;SDS011;2168;53.576;9.980;2023-02-15T02:02:44;64.27;;;28.90;;
4309;SDS011;2168;53.576;9.980;2023-02-15T02:05:11;67.23;;;30.63;;
4309;SDS011;2168;53.576;9.980;2023-02-15T02:07:40;63.10;;;29.27;;
4309;SDS011;2168;53.576;9.980;2023-02-15T02:10:09;64.90;;;27.30;;
4309;SDS011;2168;53.576;9.980;2023-02-15T02:12:34;65.13;;;29.27;;
4309;SDS011;2168;53.576;9.980;2023-02-15T02:15:01;69.13;;;29.20;;
4309;SDS011;2168;53.576;9.980;2023-02-15T02:28:04;60.83;;;27.97;;
4309;SDS011;2168;53.576;9.980;2023-02-15T02:30:49;67.20;;;28.97;;
4309;SDS011;2168;53.576;9.980;2023-02-15T02:33:32;72.13;;;31.70;;
4309;SDS011;2168;53.576;9.980;2023-02-15T02:36:14;57.40;;;28.93;;
4309;SDS011;2168;53.576;9.980;2023-02-15T02:38:53;58.67;;;27.87;;
4309;SDS011;2168;53.576;9.980;2023-02-15T02:44:09;72.17;;;31.40;;
4309;SDS011;2168;53.576;9.980;2023-02-15T02:46:37;89.73;;;32.30;;
4309;SDS011;2168;53.576;9.980;2023-02-15T02:49:03;74.67;;;31.07;;
4309;SDS011;2168;53.576;9.980;2023-02-15T02:51:29;71.90;;;30.63;;
4309;SDS011;2168;53.576;9.980;2023-02-15T02:53:55;72.90;;;30.97;;
4309;SDS011;2168;53.576;9.980;2023-02-15T02:56:36;72.77;;;32.07;;
4309;SDS011;2168;53.576;9.980;2023-02-15T02:59:07;63.43;;;30.80;;
4309;SDS011;2168;53.576;9.980;2023-02-15T03:01:43;81.90;;;32.53;;
4309;SDS011;2168;53.576;9.980;2023-02-15T03:04:16;76.33;;;34.30;;
4309;SDS011;2168;53.576;9.980;2023-02-15T03:06:52;76.63;;;31.63;;
4309;SDS011;2168;53.576;9.980;2023-02-15T03:09:23;72.83;;;32.30;;
4309;SDS011;2168;53.576;9.980;2023-02-15T03:11:50;100.73;;;31.13;;
4309;SDS011;2168;53.576;9.980;2023-02-15T03:14:15;71.57;;;29.80;;
4309;SDS011;2168;53.576;9.980;2023-02-15T03:16:42;71.70;;;30.53;;
4309;SDS011;2168;53.576;9.980;2023-02-15T03:19:09;75.30;;;29.47;;
4309;SDS011;2168;53.576;9.980;2023-02-15T03:24:06;86.50;;;32.30;;
4309;SDS011;2168;53.576;9.980;2023-02-15T03:26:32;72.70;;;31.13;;
4309;SDS011;2168;53.576;9.980;2023-02-15T03:28:58;77.80;;;31.70;;
4309;SDS011;2168;53.576;9.980;2023-02-15T03:31:26;68.13;;;30.20;;
4309;SDS011;2168;53.576;9.980;2023-02-15T03:34:00;68.93;;;30.43;;
4309;SDS011;2168;53.576;9.980;2023-02-15T03:36:29;62.80;;;28.30;;
4309;SDS011;2168;53.576;9.980;2023-02-15T03:41:24;62.73;;;28.17;;
4309;SDS011;2168;53.576;9.980;2023-02-15T03:43:58;60.80;;;26.60;;
4309;SDS011;2168;53.576;9.980;2023-02-15T03:48:57;59.60;;;27.60;;
4309;SDS011;2168;53.576;9.980;2023-02-15T03:51:26;55.00;;;25.73;;
4309;SDS011;2168;53.576;9.980;2023-02-15T03:53:59;57.17;;;26.93;;
4309;SDS011;2168;53.576;9.980;2023-02-15T03:56:25;55.00;;;27.80;;
4309;SDS011;2168;53.576;9.980;2023-02-15T03:58:50;62.43;;;26.60;;
4309;SDS011;2168;53.576;9.980;2023-02-15T04:04:19;47.47;;;25.17;;
4309;SDS011;2168;53.576;9.980;2023-02-15T04:06:45;48.70;;;24.33;;
4309;SDS011;2168;53.576;9.980;2023-02-15T04:09:11;49.43;;;24.10;;
4309;SDS011;2168;53.576;9.980;2023-02-15T04:11:55;116.07;;;26.73;;
4309;SDS011;2168;53.576;9.980;2023-02-15T04:14:20;48.73;;;23.53;;
4309;SDS011;2168;53.576;9.980;2023-02-15T04:17:08;45.73;;;23.57;;
4309;SDS011;2168;53.576;9.980;2023-02-15T04:19:34;45.37;;;24.00;;
4309;SDS011;2168;53.576;9.980;2023-02-15T04:22:18;46.67;;;25.00;;
4309;SDS011;2168;53.576;9.980;2023-02-15T04:25:02;46.03;;;25.53;;
4309;SDS011;2168;53.576;9.980;2023-02-15T04:27:41;50.47;;;25.27;;
4309;SDS011;2168;53.576;9.980;2023-02-15T04:30:06;48.57;;;25.00;;
4309;SDS011;2168;53.576;9.980;2023-02-15T04:32:32;51.30;;;25.13;;
4309;SDS011;2168;53.576;9.980;2023-02-15T04:34:57;61.13;;;26.80;;
4309;SDS011;2168;53.576;9.980;2023-02-15T04:37:22;62.17;;;23.27;;
4309;SDS011;2168;53.576;9.980;2023-02-15T04:39:48;56.50;;;25.57;;
4309;SDS011;2168;53.576;9.980;2023-02-15T04:42:14;71.60;;;26.50;;
4309;SDS011;2168;53.576;9.980;2023-02-15T04:44:39;48.67;;;23.93;;
4309;SDS011;2168;53.576;9.980;2023-02-15T04:47:05;69.10;;;25.40;;
4309;SDS011;2168;53.576;9.980;2023-02-15T04:49:30;59.57;;;24.77;;
4309;SDS011;2168;53.576;9.980;2023-02-15T04:51:55;56.27;;;25.27;;
4309;SDS011;2168;53.576;9.980;2023-02-15T04:54:20;60.57;;;25.87;;
4309;SDS011;2168;53.576;9.980;2023-02-15T04:56:45;47.20;;;25.37;;
4309;SDS011;2168;53.576;9.980;2023-02-15T04:59:11;57.50;;;25.87;;
4309;SDS011;2168;53.576;9.980;2023-02-15T05:01:36;47.27;;;23.80;;
4309;SDS011;2168;53.576;9.980;2023-02-15T05:04:01;58.67;;;25.00;;
4309;SDS011;2168;53.576;9.980;2023-02-15T05:06:27;56.20;;;25.60;;
4309;SDS011;2168;53.576;9.980;2023-02-15T05:08:52;58.13;;;26.07;;
4309;SDS011;2168;53.576;9.980;2023-02-15T05:11:18;57.60;;;26.40;;
4309;SDS011;2168;53.576;9.980;2023-02-15T05:13:43;63.47;;;26.67;;
4309;SDS011;2168;53.576;9.980;2023-02-15T05:16:08;58.53;;;27.07;;
4309;SDS011;2168;53.576;9.980;2023-02-15T05:18:33;50.57;;;24.87;;
4309;SDS011;2168;53.576;9.980;2023-02-15T05:20:58;54.57;;;24.90;;
4309;SDS011;2168;53.576;9.980;2023-02-15T05:23:24;83.90;;;25.97;;
4309;SDS011;2168;53.576;9.980;2023-02-15T05:25:49;46.00;;;25.00;;
4309;SDS011;2168;53.576;9.980;2023-02-15T05:28:33;71.00;;;26.20;;
4309;SDS011;2168;53.576;9.980;2023-02-15T05:33:24;56.10;;;26.73;;
4309;SDS011;2168;53.576;9.980;2023-02-15T05:35:49;73.87;;;27.27;;
4309;SDS011;2168;53.576;9.980;2023-02-15T05:38:14;59.67;;;25.53;;
4309;SDS011;2168;53.576;9.980;2023-02-15T05:40:39;51.70;;;26.53;;
4309;SDS011;2168;53.576;9.980;2023-02-15T05:43:05;55.13;;;25.67;;
4309;SDS011;2168;53.576;9.980;2023-02-15T05:45:30;52.13;;;26.13;;
4309;SDS011;2168;53.576;9.980;2023-02-15T05:47:55;60.67;;;25.97;;
4309;SDS011;2168;53.576;9.980;2023-02-15T05:50:22;55.37;;;26.37;;
4309;SDS011;2168;53.576;9.980;2023-02-15T05:52:48;64.87;;;26.87;;
4309;SDS011;2168;53.576;9.980;2023-02-15T05:55:13;62.60;;;25.60;;
4309;SDS011;2168;53.576;9.980;2023-02-15T05:57:38;104.33;;;27.73;;
4309;SDS011;2168;53.576;9.980;2023-02-15T06:00:04;347.03;;;34.63;;
4309;SDS011;2168;53.576;9.980;2023-02-15T06:02:29;98.33;;;26.40;;
4309;SDS011;2168;53.576;9.980;2023-02-15T06:04:55;117.70;;;26.27;;
4309;SDS011;2168;53.576;9.980;2023-02-15T06:07:20;51.10;;;26.17;;
4309;SDS011;2168;53.576;9.980;2023-02-15T06:09:45;67.40;;;25.43;;
4309;SDS011;2168;53.576;9.980;2023-02-15T06:14:42;52.83;;;26.03;;
4309;SDS011;2168;53.576;9.980;2023-02-15T06:17:07;55.33;;;25.27;;
4309;SDS011;2168;53.576;9.980;2023-02-15T06:19:32;93.67;;;27.23;;
4309;SDS011;2168;53.576;9.980;2023-02-15T06:21:57;58.17;;;25.37;;
4309;SDS011;2168;53.576;9.980;2023-02-15T06:24:23;56.07;;;25.07;;
4309;SDS011;2168;53.576;9.980;2023-02-15T06:26:48;54.73;;;25.93;;
4309;SDS011;2168;53.576;9.980;2023-02-15T06:29:13;54.87;;;24.57;;
4309;SDS011;2168;53.576;9.980;2023-02-15T06:31:38;56.50;;;22.40;;
4309;SDS011;2168;53.576;9.980;2023-02-15T06:34:04;58.03;;;27.03;;
4309;SDS011;2168;53.576;9.980;2023-02-15T06:36:30;55.00;;;26.30;;
4309;SDS011;2168;53.576;9.980;2023-02-15T06:38:55;102.43;;;27.27;;
4309;SDS011;2168;53.576;9.980;2023-02-15T06:41:21;53.10;;;24.40;;
4309;SDS011;2168;53.576;9.980;2023-02-15T06:43:46;64.33;;;25.87;;
4309;SDS011;2168;53.576;9.980;2023-02-15T06:46:11;58.10;;;27.33;;
4309;SDS011;2168;53.576;9.980;2023-02-15T06:48:37;60.10;;;24.80;;
4309;SDS011;2168;53.576;9.980;2023-02-15T06:51:02;54.60;;;25.73;;
4309;SDS011;2168;53.576;9.980;2023-02-15T06:53:27;57.87;;;27.10;;
4309;SDS011;2168;53.576;9.980;2023-02-15T06:55:52;85.80;;;25.83;;
4309;SDS011;2168;53.576;9.980;2023-02-15T06:58:18;46.60;;;24.17;;
4309;SDS011;2168;53.576;9.980;2023-02-15T07:00:43;49.70;;;24.97;;
4309;SDS011;2168;53.576;9.980;2023-02-15T07:03:08;49.77;;;25.77;;
4309;SDS011;2168;53.576;9.980;2023-02-15T07:05:34;50.70;;;24.27;;
4309;SDS011;2168;53.576;9.980;2023-02-15T07:07:59;52.23;;;24.97;;
4309;SDS011;2168;53.576;9.980;2023-02-15T07:10:25;45.93;;;22.87;;
4309;SDS011;2168;53.576;9.980;2023-02-15T07:12:50;49.10;;;22.60;;
4309;SDS011;2168;53.576;9.980;2023-02-15T07:15:16;47.00;;;24.87;;
4309;SDS011;2168;53.576;9.980;2023-02-15T07:17:42;45.17;;;23.30;;
4309;SDS011;2168;53.576;9.980;2023-02-15T07:20:13;49.23;;;24.17;;
4309;SDS011;2168;53.576;9.980;2023-02-15T07:22:38;55.20;;;24.40;;
4309;SDS011;2168;53.576;9.980;2023-02-15T07:25:04;55.70;;;24.93;;
4309;SDS011;2168;53.576;9.980;2023-02-15T07:27:30;46.40;;;23.60;;
4309;SDS011;2168;53.576;9.980;2023-02-15T07:29:55;50.87;;;24.37;;
4309;SDS011;2168;53.576;9.980;2023-02-15T07:32:21;50.63;;;23.40;;
4309;SDS011;2168;53.576;9.980;2023-02-15T07:34:46;54.40;;;24.97;;
4309;SDS011;2168;53.576;9.980;2023-02-15T07:37:11;49.70;;;24.13;;
4309;SDS011;2168;53.576;9.980;2023-02-15T07:39:36;55.53;;;24.87;;
4309;SDS011;2168;53.576;9.980;2023-02-15T07:42:01;52.80;;;26.37;;
4309;SDS011;2168;53.576;9.980;2023-02-15T07:44:27;51.67;;;24.20;;
4309;SDS011;2168;53.576;9.980;2023-02-15T07:46:52;90.83;;;27.40;;
4309;SDS011;2168;53.576;9.980;2023-02-15T07:49:17;79.97;;;25.87;;
4309;SDS011;2168;53.576;9.980;2023-02-15T07:51:42;58.37;;;24.60;;
4309;SDS011;2168;53.576;9.980;2023-02-15T07:54:07;57.43;;;25.77;;
4309;SDS011;2168;53.576;9.980;2023-02-15T07:56:33;68.57;;;27.27;;
4309;SDS011;2168;53.576;9.980;2023-02-15T07:58:58;66.10;;;26.40;;
4309;SDS011;2168;53.576;9.980;2023-02-15T08:01:29;49.97;;;24.73;;
4309;SDS011;2168;53.576;9.980;2023-02-15T08:03:55;53.20;;;25.80;;
4309;SDS011;2168;53.576;9.980;2023-02-15T08:06:21;63.80;;;26.00;;
4309;SDS011;2168;53.576;9.980;2023-02-15T08:08:46;61.33;;;26.50;;
4309;SDS011;2168;53.576;9.980;2023-02-15T08:13:56;56.37;;;26.57;;
4309;SDS011;2168;53.576;9.980;2023-02-15T08:16:40;50.90;;;24.70;;
4309;SDS011;2168;53.576;9.980;2023-02-15T08:19:06;52.77;;;24.60;;
4309;SDS011;2168;53.576;9.980;2023-02-15T08:21:32;45.97;;;24.07;;
4309;SDS011;2168;53.576;9.980;2023-02-15T08:23:58;45.07;;;23.37;;
4309;SDS011;2168;53.576;9.980;2023-02-15T08:26:23;50.77;;;24.80;;
4309;SDS011;2168;53.576;9.980;2023-02-15T08:28:50;54.40;;;24.57;;
4309;SDS011;2168;53.576;9.980;2023-02-15T08:31:15;52.77;;;25.90;;
4309;SDS011;2168;53.576;9.980;2023-02-15T08:33:41;58.53;;;26.70;;
4309;SDS011;2168;53.576;9.980;2023-02-15T08:36:08;60.27;;;25.47;;
4309;SDS011;2168;53.576;9.980;2023-02-15T08:38:34;46.90;;;25.00;;
4309;SDS011;2168;53.576;9.980;2023-02-15T08:41:09;50.07;;;25.70;;
4309;SDS011;2168;53.576;9.980;2023-02-15T08:43:34;52.17;;;25.07;;
4309;SDS011;2168;53.576;9.980;2023-02-15T08:45:59;49.77;;;25.60;;
4309;SDS011;2168;53.576;9.980;2023-02-15T08:48:24;54.53;;;25.63;;
4309;SDS011;2168;53.576;9.980;2023-02-15T08:50:49;48.37;;;23.00;;
4309;SDS011;2168;53.576;9.980;2023-02-15T08:53:15;42.13;;;22.30;;
4309;SDS011;2168;53.576;9.980;2023-02-15T08:55:40;55.30;;;23.80;;
4309;SDS011;2168;53.576;9.980;2023-02-15T08:58:05;47.27;;;23.53;;
4309;SDS011;2168;53.576;9.980;2023-02-15T09:00:30;49.40;;;24.37;;
4309;SDS011;2168;53.576;9.980;2023-02-15T09:02:56;53.03;;;24.90;;
4309;SDS011;2168;53.576;9.980;2023-02-15T09:05:21;45.20;;;24.17;;
4309;SDS011;2168;53.576;9.980;2023-02-15T09:07:46;49.23;;;23.80;;
4309;SDS011;2168;53.576;9.980;2023-02-15T09:10:11;49.70;;;25.50;;
4309;SDS011;2168;53.576;9.980;2023-02-15T09:12:37;46.93;;;23.97;;
4309;SDS011;2168;53.576;9.980;2023-02-15T09:15:02;48.47;;;24.30;;
4309;SDS011;2168;53.576;9.980;2023-02-15T09:17:27;48.17;;;25.20;;
4309;SDS011;2168;53.576;9.980;2023-02-15T09:19:52;47.43;;;23.33;;
4309;SDS011;2168;53.576;9.980;2023-02-15T09:22:17;46.10;;;24.13;;
4309;SDS011;2168;53.576;9.980;2023-02-15T09:24:43;44.27;;;23.53;;
4309;SDS011;2168;53.576;9.980;2023-02-15T09:27:08;42.57;;;22.13;;
4309;SDS011;2168;53.576;9.980;2023-02-15T09:29:33;47.47;;;23.07;;
4309;SDS011;2168;53.576;9.980;2023-02-15T09:31:58;41.33;;;23.93;;
4309;SDS011;2168;53.576;9.980;2023-02-15T09:34:23;44.90;;;23.47;;
4309;SDS011;2168;53.576;9.980;2023-02-15T09:36:49;39.20;;;21.63;;
4309;SDS011;2168;53.576;9.980;2023-02-15T09:39:19;47.07;;;23.23;;
4309;SDS011;2168;53.576;9.980;2023-02-15T09:41:50;37.97;;;23.57;;
4309;SDS011;2168;53.576;9.980;2023-02-15T09:56:58;44.50;;;22.90;;
4309;SDS011;2168;53.576;9.980;2023-02-15T09:59:32;43.97;;;22.93;;
4309;SDS011;2168;53.576;9.980;2023-02-15T10:10:51;44.97;;;22.77;;
4309;SDS011;2168;53.576;9.980;2023-02-15T10:13:24;45.03;;;23.93;;
4309;SDS011;2168;53.576;9.980;2023-02-15T10:21:23;47.87;;;24.33;;
4309;SDS011;2168;53.576;9.980;2023-02-15T10:23:54;43.43;;;23.40;;
4309;SDS011;2168;53.576;9.980;2023-02-15T10:33:53;44.40;;;23.70;;
4309;SDS011;2168;53.576;9.980;2023-02-15T10:39:06;49.10;;;23.40;;
4309;SDS011;2168;53.576;9.980;2023-02-15T10:46:54;33.33;;;20.70;;
4309;SDS011;2168;53.576;9.980;2023-02-15T10:49:23;35.87;;;21.90;;
4309;SDS011;2168;53.576;9.980;2023-02-15T10:56:50;35.23;;;21.33;;
4309;SDS011;2168;53.576;9.980;2023-02-15T11:01:55;36.33;;;22.13;;
4309;SDS011;2168;53.576;9.980;2023-02-15T11:06:49;34.83;;;22.27;;
4309;SDS011;2168;53.576;9.980;2023-02-15T11:09:17;39.93;;;23.33;;
4309;SDS011;2168;53.576;9.980;2023-02-15T11:11:44;36.73;;;22.50;;
4309;SDS011;2168;53.576;9.980;2023-02-15T11:14:23;35.07;;;21.50;;
4309;SDS011;2168;53.576;9.980;2023-02-15T11:16:52;44.60;;;22.50;;
4309;SDS011;2168;53.576;9.980;2023-02-15T11:19:19;38.07;;;22.33;;
4309;SDS011;2168;53.576;9.980;2023-02-15T11:21:48;41.07;;;23.60;;
4309;SDS011;2168;53.576;9.980;2023-02-15T11:24:16;32.47;;;22.70;;
4309;SDS011;2168;53.576;9.980;2023-02-15T11:26:49;35.53;;;22.57;;
4309;SDS011;2168;53.576;9.980;2023-02-15T11:29:26;42.50;;;23.80;;
4309;SDS011;2168;53.576;9.980;2023-02-15T11:31:59;36.33;;;22.80;;
4309;SDS011;2168;53.576;9.980;2023-02-15T11:34:27;39.07;;;22.67;;
4309;SDS011;2168;53.576;9.980;2023-02-15T11:36:55;39.70;;;23.50;;
4309;SDS011;2168;53.576;9.980;2023-02-15T11:39:20;38.20;;;23.20;;
4309;SDS011;2168;53.576;9.980;2023-02-15T11:41:50;36.90;;;23.20;;
4309;SDS011;2168;53.576;9.980;2023-02-15T11:44:27;39.20;;;23.90;;
4309;SDS011;2168;53.576;9.980;2023-02-15T11:46:54;36.33;;;22.80;;
4309;SDS011;2168;53.576;9.980;2023-02-15T11:51:45;34.83;;;22.70;;
4309;SDS011;2168;53.576;9.980;2023-02-15T11:54:10;39.40;;;24.47;;
4309;SDS011;2168;53.576;9.980;2023-02-15T11:56:35;39.73;;;23.30;;
4309;SDS011;2168;53.576;9.980;2023-02-15T11:59:05;38.33;;;23.33;;
4309;SDS011;2168;53.576;9.980;2023-02-15T12:01:37;39.43;;;22.57;;
4309;SDS011;2168;53.576;9.980;2023-02-15T12:06:48;36.40;;;22.70;;
4309;SDS011;2168;53.576;9.980;2023-02-15T12:09:24;36.57;;;23.40;;
4309;SDS011;2168;53.576;9.980;2023-02-15T12:11:52;35.50;;;23.50;;
4309;SDS011;2168;53.576;9.980;2023-02-15T12:14:17;36.27;;;23.37;;
4309;SDS011;2168;53.576;9.980;2023-02-15T12:16:46;35.53;;;22.97;;
4309;SDS011;2168;53.576;9.980;2023-02-15T12:21:44;38.30;;;24.80;;
4309;SDS011;2168;53.576;9.980;2023-02-15T12:24:17;36.30;;;24.13;;
4309;SDS011;2168;53.576;9.980;2023-02-15T12:26:43;38.37;;;24.67;;
4309;SDS011;2168;53.576;9.980;2023-02-15T12:29:15;36.53;;;23.80;;
4309;SDS011;2168;53.576;9.980;2023-02-15T12:31:41;41.77;;;24.63;;
4309;SDS011;2168;53.576;9.980;2023-02-15T12:34:12;35.90;;;23.40;;
4309;SDS011;2168;53.576;9.980;2023-02-15T12:36:41;37.57;;;23.80;;
4309;SDS011;2168;53.576;9.980;2023-02-15T12:41:37;35.10;;;23.30;;
4309;SDS011;2168;53.576;9.980;2023-02-15T12:44:06;37.33;;;23.60;;
4309;SDS011;2168;53.576;9.980;2023-02-15T12:46:33;34.13;;;23.53;;
4309;SDS011;2168;53.576;9.980;2023-02-15T12:49:05;37.70;;;24.20;;
4309;SDS011;2168;53.576;9.980;2023-02-15T12:51:41;34.10;;;23.47;;
4309;SDS011;2168;53.576;9.980;2023-02-15T12:54:17;39.77;;;25.20;;
4309;SDS011;2168;53.576;9.980;2023-02-15T12:56:42;37.73;;;25.43;;
4309;SDS011;2168;53.576;9.980;2023-02-15T12:59:12;37.77;;;24.33;;
4309;SDS011;2168;53.576;9.980;2023-02-15T13:01:39;37.10;;;24.30;;
4309;SDS011;2168;53.576;9.980;2023-02-15T13:04:06;32.40;;;22.77;;
4309;SDS011;2168;53.576;9.980;2023-02-15T13:06:38;35.90;;;24.13;;
4309;SDS011;2168;53.576;9.980;2023-02-15T13:09:16;36.07;;;24.97;;
4309;SDS011;2168;53.576;9.980;2023-02-15T13:11:43;34.00;;;23.90;;
4309;SDS011;2168;53.576;9.980;2023-02-15T13:16:53;47.33;;;27.13;;
4309;SDS011;2168;53.576;9.980;2023-02-15T13:19:28;41.90;;;26.40;;
4309;SDS011;2168;53.576;9.980;2023-02-15T13:21:54;46.10;;;25.30;;
4309;SDS011;2168;53.576;9.980;2023-02-15T13:24:22;45.23;;;25.17;;
4309;SDS011;2168;53.576;9.980;2023-02-15T13:26:48;46.80;;;27.23;;
4309;SDS011;2168;53.576;9.980;2023-02-15T13:29:24;51.27;;;30.23;;
4309;SDS011;2168;53.576;9.980;2023-02-15T13:31:51;47.33;;;29.87;;
4309;SDS011;2168;53.576;9.980;2023-02-15T13:34:39;48.60;;;28.93;;
4309;SDS011;2168;53.576;9.980;2023-02-15T13:42:05;47.73;;;28.37;;
4309;SDS011;2168;53.576;9.980;2023-02-15T13:44:40;49.47;;;28.17;;
4309;SDS011;2168;53.576;9.980;2023-02-15T13:52:23;47.60;;;28.90;;
4309;SDS011;2168;53.576;9.980;2023-02-15T13:57:45;44.20;;;27.80;;
4309;SDS011;2168;53.576;9.980;2023-02-15T14:31:37;27.50;;;19.90;;
4309;SDS011;2168;53.576;9.980;2023-02-15T14:34:03;29.10;;;19.50;;
4309;SDS011;2168;53.576;9.980;2023-02-15T14:36:29;35.37;;;21.17;;
4309;SDS011;2168;53.576;9.980;2023-02-15T14:39:11;29.10;;;19.17;;
4309;SDS011;2168;53.576;9.980;2023-02-15T14:42:11;28.73;;;19.93;;
4309;SDS011;2168;53.576;9.980;2023-02-15T14:44:40;32.33;;;21.07;;
4309;SDS011;2168;53.576;9.980;2023-02-15T14:47:09;39.10;;;21.20;;
4309;SDS011;2168;53.576;9.980;2023-02-15T14:49:37;30.60;;;20.87;;
4309;SDS011;2168;53.576;9.980;2023-02-15T14:52:06;30.00;;;21.90;;
4309;SDS011;2168;53.576;9.980;2023-02-15T14:59:27;28.60;;;20.37;;
4309;SDS011;2168;53.576;9.980;2023-02-15T15:02:09;29.73;;;21.33;;
4309;SDS011;2168;53.576;9.980;2023-02-15T15:04:42;38.50;;;21.87;;
4309;SDS011;2168;53.576;9.980;2023-02-15T15:07:09;35.00;;;20.70;;
4309;SDS011;2168;53.576;9.980;2023-02-15T15:09:39;31.70;;;20.63;;
4309;SDS011;2168;53.576;9.980;2023-02-15T15:14:45;31.90;;;22.10;;
4309;SDS011;2168;53.576;9.980;2023-02-15T15:17:11;30.00;;;21.00;;
4309;SDS011;2168;53.576;9.980;2023-02-15T15:22:23;29.53;;;20.67;;
4309;SDS011;2168;53.576;9.980;2023-02-15T15:24:50;26.30;;;19.43;;
4309;SDS011;2168;53.576;9.980;2023-02-15T15:30:00;27.77;;;20.07;;
4309;SDS011;2168;53.576;9.980;2023-02-15T15:32:26;28.03;;;20.07;;
4309;SDS011;2168;53.576;9.980;2023-02-15T15:35:02;30.07;;;20.40;;
4309;SDS011;2168;53.576;9.980;2023-02-15T15:42:37;30.40;;;19.73;;
4309;SDS011;2168;53.576;9.980;2023-02-15T15:50:14;35.77;;;20.30;;
4309;SDS011;2168;53.576;9.980;2023-02-15T15:52:40;26.20;;;18.67;;
4309;SDS011;2168;53.576;9.980;2023-02-15T15:55:14;29.93;;;20.20;;
4309;SDS011;2168;53.576;9.980;2023-02-15T15:57:41;28.83;;;19.70;;
4309;SDS011;2168;53.576;9.980;2023-02-15T16:02:51;27.43;;;20.00;;
4309;SDS011;2168;53.576;9.980;2023-02-15T16:05:17;32.30;;;19.23;;
4309;SDS011;2168;53.576;9.980;2023-02-15T16:07:42;27.97;;;19.83;;
4309;SDS011;2168;53.576;9.980;2023-02-15T16:10:16;35.20;;;20.60;;
4309;SDS011;2168;53.576;9.980;2023-02-15T16:12:45;34.00;;;20.00;;
4309;SDS011;2168;53.576;9.980;2023-02-15T16:15:13;38.13;;;20.80;;
4309;SDS011;2168;53.576;9.980;2023-02-15T16:17:40;37.27;;;19.23;;
4309;SDS011;2168;53.576;9.980;2023-02-15T16:20:16;32.83;;;19.47;;
4309;SDS011;2168;53.576;9.980;2023-02-15T16:22:43;30.90;;;19.90;;
4309;SDS011;2168;53.576;9.980;2023-02-15T16:27:44;32.57;;;20.50;;
4309;SDS011;2168;53.576;9.980;2023-02-15T16:30:23;30.60;;;19.73;;
4309;SDS011;2168;53.576;9.980;2023-02-15T16:32:52;30.13;;;20.40;;
4309;SDS011;2168;53.576;9.980;2023-02-15T16:35:18;27.00;;;19.30;;
4309;SDS011;2168;53.576;9.980;2023-02-15T16:37:44;26.73;;;19.07;;
4309;SDS011;2168;53.576;9.980;2023-02-15T16:43:04;27.27;;;19.80;;
4309;SDS011;2168;53.576;9.980;2023-02-15T16:45:34;30.17;;;20.10;;
4309;SDS011;2168;53.576;9.980;2023-02-15T16:48:02;32.37;;;20.00;;
4309;SDS011;2168;53.576;9.980;2023-02-15T16:50:32;30.67;;;19.20;;
4309;SDS011;2168;53.576;9.980;2023-02-15T16:52:58;29.47;;;19.17;;
4309;SDS011;2168;53.576;9.980;2023-02-15T16:55:25;27.90;;;19.70;;
4309;SDS011;2168;53.576;9.980;2023-02-15T16:57:51;31.37;;;19.97;;
4309;SDS011;2168;53.576;9.980;2023-02-15T17:00:30;28.07;;;19.33;;
4309;SDS011;2168;53.576;9.980;2023-02-15T17:05:47;31.67;;;20.23;;
4309;SDS011;2168;53.576;9.980;2023-02-15T17:10:41;27.97;;;19.17;;
4309;SDS011;2168;53.576;9.980;2023-02-15T17:15:36;35.78;;;21.08;;
4309;SDS011;2168;53.576;9.980;2023-02-15T17:18:05;31.30;;;21.07;;
4309;SDS011;2168;53.576;9.980;2023-02-15T17:20:31;31.97;;;20.60;;
4309;SDS011;2168;53.576;9.980;2023-02-15T17:22:56;31.50;;;21.40;;
4309;SDS011;2168;53.576;9.980;2023-02-15T17:25:38;29.53;;;19.93;;
4309;SDS011;2168;53.576;9.980;2023-02-15T17:28:04;33.40;;;21.37;;
4309;SDS011;2168;53.576;9.980;2023-02-15T17:30:31;29.30;;;19.53;;
4309;SDS011;2168;53.576;9.980;2023-02-15T17:33:00;29.03;;;20.40;;
4309;SDS011;2168;53.576;9.980;2023-02-15T17:35:27;28.77;;;19.90;;
4309;SDS011;2168;53.576;9.980;2023-02-15T17:38:00;33.30;;;21.60;;
4309;SDS011;2168;53.576;9.980;2023-02-15T17:40:27;29.43;;;19.53;;
4309;SDS011;2168;53.576;9.980;2023-02-15T17:42:53;28.93;;;19.87;;
4309;SDS011;2168;53.576;9.980;2023-02-15T17:45:18;33.13;;;21.57;;
4309;SDS011;2168;53.576;9.980;2023-02-15T17:47:44;32.90;;;21.43;;
4309;SDS011;2168;53.576;9.980;2023-02-15T17:50:15;37.50;;;20.67;;
4309;SDS011;2168;53.576;9.980;2023-02-15T17:52:42;35.47;;;22.43;;
4309;SDS011;2168;53.576;9.980;2023-02-15T17:55:12;32.93;;;22.60;;